sensor_id;sensor_type;location;lat;lon;timestamp;P1;durP1;ratioP1;P2;durP2;ratioP2
20014;SDS011;61787;42.022;23.078;2023-05-07T00:00:13;5.63;;;3.93;;
20014;SDS011;61787;42.022;23.078;2023-05-07T00:01:17;4.80;;;3.63;;
20014;SDS011;61787;42.022;23.078;2023-05-07T00:02:20;3.93;;;3.57;;
20014;SDS011;61787;42.022;23.078;2023-05-07T00:03:22;6.03;;;3.73;;
20014;SDS011;61787;42.022;23.078;2023-05-07T00:04:24;4.10;;;3.70;;
20014;SDS011;61787;42.022;23.078;2023-05-07T00:05:26;4.80;;;3.60;;
20014;SDS011;61787;42.022;23.078;2023-05-07T00:06:27;6.23;;;3.70;;
20014;SDS011;61787;42.022;23.078;2023-05-07T00:07:30;5.07;;;3.97;;
20014;SDS011;61787;42.022;23.078;2023-05-07T00:08:31;5.87;;;4.30;;
20014;SDS011;61787;42.022;23.078;2023-05-07T00:09:33;5.03;;;3.80;;
20014;SDS011;61787;42.022;23.078;2023-05-07T00:10:35;5.23;;;3.73;;
20014;SDS011;61787;42.022;23.078;2023-05-07T00:11:37;4.10;;;3.70;;
20014;SDS011;61787;42.022;23.078;2023-05-07T00:12:40;7.67;;;4.07;;
20014;SDS011;61787;42.022;23.078;2023-05-07T00:13:42;6.97;;;4.00;;
20014;SDS011;61787;42.022;23.078;2023-05-07T00:14:43;4.60;;;3.90;;
20014;SDS011;61787;42.022;23.078;2023-05-07T00:15:45;5.30;;;4.20;;
20014;SDS011;61787;42.022;23.078;2023-05-07T00:16:46;4.47;;;4.00;;
20014;SDS011;61787;42.022;23.078;2023-05-07T00:17:48;4.97;;;4.20;;
20014;SDS011;61787;42.022;23.078;2023-05-07T00:18:50;4.20;;;3.70;;
20014;SDS011;61787;42.022;23.078;2023-05-07T00:19:51;4.50;;;4.07;;
20014;SDS011;61787;42.022;23.078;2023-05-07T00:20:53;7.10;;;3.90;;
20014;SDS011;61787;42.022;23.078;2023-05-07T00:21:55;5.53;;;3.97;;
20014;SDS011;61787;42.022;23.078;2023-05-07T00:22:57;11.30;;;4.37;;
20014;SDS011;61787;42.022;23.078;2023-05-07T00:23:59;7.03;;;4.00;;
20014;SDS011;61787;42.022;23.078;2023-05-07T00:25:00;5.70;;;3.90;;
20014;SDS011;61787;42.022;23.078;2023-05-07T00:26:02;4.83;;;3.93;;
20014;SDS011;61787;42.022;23.078;2023-05-07T00:27:04;7.67;;;4.23;;
20014;SDS011;61787;42.022;23.078;2023-05-07T00:28:06;5.77;;;4.40;;
20014;SDS011;61787;42.022;23.078;2023-05-07T00:29:08;7.20;;;4.23;;
20014;SDS011;61787;42.022;23.078;2023-05-07T00:30:09;5.67;;;3.90;;
20014;SDS011;61787;42.022;23.078;2023-05-07T00:31:12;5.27;;;3.97;;
20014;SDS011;61787;42.022;23.078;2023-05-07T00:32:14;6.07;;;4.07;;
20014;SDS011;61787;42.022;23.078;2023-05-07T00:33:16;4.90;;;4.17;;
20014;SDS011;61787;42.022;23.078;2023-05-07T00:34:18;7.60;;;4.20;;
20014;SDS011;61787;42.022;23.078;2023-05-07T00:35:20;4.77;;;4.10;;
20014;SDS011;61787;42.022;23.078;2023-05-07T00:36:21;5.20;;;4.13;;
20014;SDS011;61787;42.022;23.078;2023-05-07T00:37:23;4.70;;;4.17;;
20014;SDS011;61787;42.022;23.078;2023-05-07T00:38:25;6.50;;;4.33;;
20014;SDS011;61787;42.022;23.078;2023-05-07T00:39:26;6.53;;;4.17;;
20014;SDS011;61787;42.022;23.078;2023-05-07T00:40:28;4.10;;;3.53;;
20014;SDS011;61787;42.022;23.078;2023-05-07T00:41:29;9.20;;;4.23;;
20014;SDS011;61787;42.022;23.078;2023-05-07T00:42:34;6.93;;;4.00;;
20014;SDS011;61787;42.022;23.078;2023-05-07T00:43:35;6.07;;;4.40;;
20014;SDS011;61787;42.022;23.078;2023-05-07T00:44:37;4.70;;;4.03;;
20014;SDS011;61787;42.022;23.078;2023-05-07T00:45:38;5.83;;;4.33;;
20014;SDS011;61787;42.022;23.078;2023-05-07T00:46:40;6.90;;;4.67;;
20014;SDS011;61787;42.022;23.078;2023-05-07T00:47:42;5.60;;;4.80;;
20014;SDS011;61787;42.022;23.078;2023-05-07T00:48:44;4.63;;;4.23;;
20014;SDS011;61787;42.022;23.078;2023-05-07T00:49:46;4.93;;;4.17;;
20014;SDS011;61787;42.022;23.078;2023-05-07T00:50:48;7.30;;;4.77;;
20014;SDS011;61787;42.022;23.078;2023-05-07T00:51:49;5.17;;;4.37;;
20014;SDS011;61787;42.022;23.078;2023-05-07T00:52:51;6.10;;;4.37;;
20014;SDS011;61787;42.022;23.078;2023-05-07T00:53:54;6.23;;;4.30;;
20014;SDS011;61787;42.022;23.078;2023-05-07T00:54:55;6.27;;;4.57;;
20014;SDS011;61787;42.022;23.078;2023-05-07T00:55:57;5.03;;;4.50;;
20014;SDS011;61787;42.022;23.078;2023-05-07T00:56:59;5.90;;;4.77;;
20014;SDS011;61787;42.022;23.078;2023-05-07T00:58:01;5.07;;;4.50;;
20014;SDS011;61787;42.022;23.078;2023-05-07T00:59:03;7.67;;;4.90;;
20014;SDS011;61787;42.022;23.078;2023-05-07T01:00:05;5.73;;;4.73;;
20014;SDS011;61787;42.022;23.078;2023-05-07T01:01:09;8.23;;;4.60;;
20014;SDS011;61787;42.022;23.078;2023-05-07T01:02:10;7.40;;;4.93;;
20014;SDS011;61787;42.022;23.078;2023-05-07T01:03:12;7.23;;;4.93;;
20014;SDS011;61787;42.022;23.078;2023-05-07T01:04:14;6.23;;;5.27;;
20014;SDS011;61787;42.022;23.078;2023-05-07T01:05:17;9.90;;;5.47;;
20014;SDS011;61787;42.022;23.078;2023-05-07T01:06:21;10.07;;;5.47;;
20014;SDS011;61787;42.022;23.078;2023-05-07T01:07:27;6.77;;;4.90;;
20014;SDS011;61787;42.022;23.078;2023-05-07T01:08:30;10.63;;;5.60;;
20014;SDS011;61787;42.022;23.078;2023-05-07T01:09:33;6.17;;;5.00;;
20014;SDS011;61787;42.022;23.078;2023-05-07T01:10:36;6.60;;;5.43;;
20014;SDS011;61787;42.022;23.078;2023-05-07T01:11:38;6.50;;;5.20;;
20014;SDS011;61787;42.022;23.078;2023-05-07T01:12:40;6.17;;;5.57;;
20014;SDS011;61787;42.022;23.078;2023-05-07T01:13:43;8.57;;;5.20;;
20014;SDS011;61787;42.022;23.078;2023-05-07T01:14:46;5.87;;;5.07;;
20014;SDS011;61787;42.022;23.078;2023-05-07T01:15:47;9.87;;;5.70;;
20014;SDS011;61787;42.022;23.078;2023-05-07T01:16:49;9.73;;;5.47;;
20014;SDS011;61787;42.022;23.078;2023-05-07T01:17:52;8.87;;;5.53;;
20014;SDS011;61787;42.022;23.078;2023-05-07T01:18:54;10.77;;;6.07;;
20014;SDS011;61787;42.022;23.078;2023-05-07T01:19:56;7.53;;;5.87;;
20014;SDS011;61787;42.022;23.078;2023-05-07T01:20:58;8.17;;;6.10;;
20014;SDS011;61787;42.022;23.078;2023-05-07T01:22:01;6.67;;;5.40;;
20014;SDS011;61787;42.022;23.078;2023-05-07T01:23:08;8.83;;;6.57;;
20014;SDS011;61787;42.022;23.078;2023-05-07T01:24:12;7.73;;;6.00;;
20014;SDS011;61787;42.022;23.078;2023-05-07T01:25:14;8.63;;;6.23;;
20014;SDS011;61787;42.022;23.078;2023-05-07T01:26:17;7.30;;;6.07;;
20014;SDS011;61787;42.022;23.078;2023-05-07T01:27:20;7.87;;;6.10;;
20014;SDS011;61787;42.022;23.078;2023-05-07T01:28:22;7.33;;;6.37;;
20014;SDS011;61787;42.022;23.078;2023-05-07T01:29:23;6.33;;;5.17;;
20014;SDS011;61787;42.022;23.078;2023-05-07T01:30:25;8.93;;;5.80;;
20014;SDS011;61787;42.022;23.078;2023-05-07T01:31:27;7.63;;;6.00;;
20014;SDS011;61787;42.022;23.078;2023-05-07T01:33:50;6.43;;;5.70;;
20014;SDS011;61787;42.022;23.078;2023-05-07T01:34:53;8.10;;;5.90;;
20014;SDS011;61787;42.022;23.078;2023-05-07T01:35:56;7.17;;;5.33;;
20014;SDS011;61787;42.022;23.078;2023-05-07T01:37:01;6.17;;;5.23;;
20014;SDS011;61787;42.022;23.078;2023-05-07T01:38:04;7.10;;;5.70;;
20014;SDS011;61787;42.022;23.078;2023-05-07T01:39:07;7.23;;;6.03;;
20014;SDS011;61787;42.022;23.078;2023-05-07T01:40:10;5.63;;;5.13;;
20014;SDS011;61787;42.022;23.078;2023-05-07T01:41:12;8.97;;;5.73;;
20014;SDS011;61787;42.022;23.078;2023-05-07T01:42:14;6.77;;;5.63;;
20014;SDS011;61787;42.022;23.078;2023-05-07T01:43:16;6.80;;;5.83;;
20014;SDS011;61787;42.022;23.078;2023-05-07T01:44:18;6.53;;;5.53;;
20014;SDS011;61787;42.022;23.078;2023-05-07T01:45:20;6.17;;;5.57;;
20014;SDS011;61787;42.022;23.078;2023-05-07T01:46:22;6.97;;;5.20;;
20014;SDS011;61787;42.022;23.078;2023-05-07T01:47:25;9.97;;;5.23;;
20014;SDS011;61787;42.022;23.078;2023-05-07T01:48:27;6.70;;;5.40;;
20014;SDS011;61787;42.022;23.078;2023-05-07T01:49:29;7.20;;;5.43;;
20014;SDS011;61787;42.022;23.078;2023-05-07T01:50:31;7.17;;;5.53;;
20014;SDS011;61787;42.022;23.078;2023-05-07T01:51:33;5.97;;;5.03;;
20014;SDS011;61787;42.022;23.078;2023-05-07T01:52:38;6.97;;;5.60;;
20014;SDS011;61787;42.022;23.078;2023-05-07T01:53:40;8.60;;;5.23;;
20014;SDS011;61787;42.022;23.078;2023-05-07T01:54:41;8.73;;;5.90;;
20014;SDS011;61787;42.022;23.078;2023-05-07T01:55:43;6.67;;;5.60;;
20014;SDS011;61787;42.022;23.078;2023-05-07T01:56:46;10.83;;;5.53;;
20014;SDS011;61787;42.022;23.078;2023-05-07T01:57:50;11.17;;;5.70;;
20014;SDS011;61787;42.022;23.078;2023-05-07T01:58:51;6.43;;;5.27;;
20014;SDS011;61787;42.022;23.078;2023-05-07T01:59:53;6.13;;;5.53;;
20014;SDS011;61787;42.022;23.078;2023-05-07T02:00:55;7.60;;;5.90;;
20014;SDS011;61787;42.022;23.078;2023-05-07T02:01:56;6.23;;;5.40;;
20014;SDS011;61787;42.022;23.078;2023-05-07T02:02:58;7.93;;;5.63;;
20014;SDS011;61787;42.022;23.078;2023-05-07T02:04:00;5.73;;;5.13;;
20014;SDS011;61787;42.022;23.078;2023-05-07T02:05:01;6.80;;;5.37;;
20014;SDS011;61787;42.022;23.078;2023-05-07T02:06:03;8.20;;;5.97;;
20014;SDS011;61787;42.022;23.078;2023-05-07T02:07:05;9.37;;;5.70;;
20014;SDS011;61787;42.022;23.078;2023-05-07T02:08:06;7.07;;;5.67;;
20014;SDS011;61787;42.022;23.078;2023-05-07T02:09:08;9.13;;;6.07;;
20014;SDS011;61787;42.022;23.078;2023-05-07T02:10:12;8.67;;;5.67;;
20014;SDS011;61787;42.022;23.078;2023-05-07T02:11:14;6.33;;;5.57;;
20014;SDS011;61787;42.022;23.078;2023-05-07T02:12:16;6.17;;;5.30;;
20014;SDS011;61787;42.022;23.078;2023-05-07T02:13:17;8.10;;;5.83;;
20014;SDS011;61787;42.022;23.078;2023-05-07T02:14:19;7.37;;;5.73;;
20014;SDS011;61787;42.022;23.078;2023-05-07T02:15:21;6.53;;;5.60;;
20014;SDS011;61787;42.022;23.078;2023-05-07T02:16:23;5.83;;;5.27;;
20014;SDS011;61787;42.022;23.078;2023-05-07T02:17:25;7.70;;;5.97;;
20014;SDS011;61787;42.022;23.078;2023-05-07T02:18:27;6.50;;;5.50;;
20014;SDS011;61787;42.022;23.078;2023-05-07T02:19:28;7.37;;;5.90;;
20014;SDS011;61787;42.022;23.078;2023-05-07T02:20:30;8.20;;;5.97;;
20014;SDS011;61787;42.022;23.078;2023-05-07T02:21:32;6.03;;;5.37;;
20014;SDS011;61787;42.022;23.078;2023-05-07T02:22:33;7.73;;;5.63;;
20014;SDS011;61787;42.022;23.078;2023-05-07T02:23:35;7.93;;;5.40;;
20014;SDS011;61787;42.022;23.078;2023-05-07T02:24:36;6.50;;;5.70;;
20014;SDS011;61787;42.022;23.078;2023-05-07T02:25:38;8.17;;;5.83;;
20014;SDS011;61787;42.022;23.078;2023-05-07T02:26:40;7.10;;;6.10;;
20014;SDS011;61787;42.022;23.078;2023-05-07T02:27:42;7.00;;;5.80;;
20014;SDS011;61787;42.022;23.078;2023-05-07T02:28:44;7.17;;;5.67;;
20014;SDS011;61787;42.022;23.078;2023-05-07T02:29:45;6.73;;;5.13;;
20014;SDS011;61787;42.022;23.078;2023-05-07T02:30:47;6.37;;;5.17;;
20014;SDS011;61787;42.022;23.078;2023-05-07T02:31:48;7.90;;;5.00;;
20014;SDS011;61787;42.022;23.078;2023-05-07T02:32:54;7.83;;;4.43;;
20014;SDS011;61787;42.022;23.078;2023-05-07T02:33:56;5.77;;;4.90;;
20014;SDS011;61787;42.022;23.078;2023-05-07T02:34:57;8.30;;;5.20;;
20014;SDS011;61787;42.022;23.078;2023-05-07T02:36:11;7.50;;;5.23;;
20014;SDS011;61787;42.022;23.078;2023-05-07T02:37:13;7.13;;;4.83;;
20014;SDS011;61787;42.022;23.078;2023-05-07T02:38:15;6.90;;;4.87;;
20014;SDS011;61787;42.022;23.078;2023-05-07T02:39:16;8.90;;;4.93;;
20014;SDS011;61787;42.022;23.078;2023-05-07T02:40:18;7.50;;;4.93;;
20014;SDS011;61787;42.022;23.078;2023-05-07T02:41:19;5.47;;;4.97;;
20014;SDS011;61787;42.022;23.078;2023-05-07T02:42:21;7.23;;;4.20;;
20014;SDS011;61787;42.022;23.078;2023-05-07T02:43:23;8.90;;;4.90;;
20014;SDS011;61787;42.022;23.078;2023-05-07T02:44:24;5.27;;;4.77;;
20014;SDS011;61787;42.022;23.078;2023-05-07T02:45:26;5.10;;;4.60;;
20014;SDS011;61787;42.022;23.078;2023-05-07T02:46:28;5.97;;;5.37;;
20014;SDS011;61787;42.022;23.078;2023-05-07T02:47:29;6.27;;;4.70;;
20014;SDS011;61787;42.022;23.078;2023-05-07T02:48:31;5.37;;;4.87;;
20014;SDS011;61787;42.022;23.078;2023-05-07T02:49:33;7.53;;;4.70;;
20014;SDS011;61787;42.022;23.078;2023-05-07T02:50:35;5.33;;;4.73;;
20014;SDS011;61787;42.022;23.078;2023-05-07T02:51:36;5.37;;;4.83;;
20014;SDS011;61787;42.022;23.078;2023-05-07T02:52:38;5.17;;;4.10;;
20014;SDS011;61787;42.022;23.078;2023-05-07T02:53:39;4.93;;;4.53;;
20014;SDS011;61787;42.022;23.078;2023-05-07T02:54:41;7.57;;;5.17;;
20014;SDS011;61787;42.022;23.078;2023-05-07T02:55:43;7.17;;;4.93;;
20014;SDS011;61787;42.022;23.078;2023-05-07T02:56:45;7.20;;;4.80;;
20014;SDS011;61787;42.022;23.078;2023-05-07T02:57:46;5.80;;;4.87;;
20014;SDS011;61787;42.022;23.078;2023-05-07T02:58:48;6.10;;;5.27;;
20014;SDS011;61787;42.022;23.078;2023-05-07T02:59:49;6.40;;;4.57;;
20014;SDS011;61787;42.022;23.078;2023-05-07T03:00:52;5.07;;;4.40;;
20014;SDS011;61787;42.022;23.078;2023-05-07T03:01:54;5.77;;;4.53;;
20014;SDS011;61787;42.022;23.078;2023-05-07T03:02:55;5.47;;;4.90;;
20014;SDS011;61787;42.022;23.078;2023-05-07T03:03:57;5.80;;;4.87;;
20014;SDS011;61787;42.022;23.078;2023-05-07T03:04:59;4.90;;;4.40;;
20014;SDS011;61787;42.022;23.078;2023-05-07T03:06:00;6.27;;;4.70;;
20014;SDS011;61787;42.022;23.078;2023-05-07T03:07:02;7.13;;;4.70;;
20014;SDS011;61787;42.022;23.078;2023-05-07T03:08:04;6.57;;;4.70;;
20014;SDS011;61787;42.022;23.078;2023-05-07T03:09:05;6.13;;;4.87;;
20014;SDS011;61787;42.022;23.078;2023-05-07T03:10:07;6.53;;;4.57;;
20014;SDS011;61787;42.022;23.078;2023-05-07T03:11:09;8.10;;;4.87;;
20014;SDS011;61787;42.022;23.078;2023-05-07T03:12:11;7.23;;;5.27;;
20014;SDS011;61787;42.022;23.078;2023-05-07T03:13:12;5.90;;;5.00;;
20014;SDS011;61787;42.022;23.078;2023-05-07T03:14:14;5.37;;;4.40;;
20014;SDS011;61787;42.022;23.078;2023-05-07T03:15:16;5.00;;;4.50;;
20014;SDS011;61787;42.022;23.078;2023-05-07T03:16:18;5.73;;;4.63;;
20014;SDS011;61787;42.022;23.078;2023-05-07T03:17:20;5.60;;;4.63;;
20014;SDS011;61787;42.022;23.078;2023-05-07T03:18:22;5.73;;;4.83;;
20014;SDS011;61787;42.022;23.078;2023-05-07T03:19:23;5.00;;;4.50;;
20014;SDS011;61787;42.022;23.078;2023-05-07T03:20:25;5.20;;;4.70;;
20014;SDS011;61787;42.022;23.078;2023-05-07T03:21:27;6.90;;;4.80;;
20014;SDS011;61787;42.022;23.078;2023-05-07T03:22:28;6.03;;;4.30;;
20014;SDS011;61787;42.022;23.078;2023-05-07T03:23:30;5.23;;;4.73;;
20014;SDS011;61787;42.022;23.078;2023-05-07T03:24:32;5.47;;;4.90;;
20014;SDS011;61787;42.022;23.078;2023-05-07T03:25:33;5.03;;;4.53;;
20014;SDS011;61787;42.022;23.078;2023-05-07T03:26:35;6.63;;;5.30;;
20014;SDS011;61787;42.022;23.078;2023-05-07T03:27:36;5.77;;;5.00;;
20014;SDS011;61787;42.022;23.078;2023-05-07T03:28:39;7.80;;;5.33;;
20014;SDS011;61787;42.022;23.078;2023-05-07T03:29:40;6.93;;;5.80;;
20014;SDS011;61787;42.022;23.078;2023-05-07T03:30:43;9.87;;;5.03;;
20014;SDS011;61787;42.022;23.078;2023-05-07T03:31:45;5.40;;;4.90;;
20014;SDS011;61787;42.022;23.078;2023-05-07T03:32:47;7.17;;;5.83;;
20014;SDS011;61787;42.022;23.078;2023-05-07T03:33:50;6.90;;;5.60;;
20014;SDS011;61787;42.022;23.078;2023-05-07T03:34:55;8.73;;;5.97;;
20014;SDS011;61787;42.022;23.078;2023-05-07T03:35:57;7.70;;;5.20;;
20014;SDS011;61787;42.022;23.078;2023-05-07T03:36:59;6.83;;;5.73;;
20014;SDS011;61787;42.022;23.078;2023-05-07T03:38:01;6.17;;;5.57;;
20014;SDS011;61787;42.022;23.078;2023-05-07T03:39:02;6.70;;;6.00;;
20014;SDS011;61787;42.022;23.078;2023-05-07T03:40:04;10.23;;;6.57;;
20014;SDS011;61787;42.022;23.078;2023-05-07T03:41:07;9.27;;;6.97;;
20014;SDS011;61787;42.022;23.078;2023-05-07T03:42:08;7.07;;;6.37;;
20014;SDS011;61787;42.022;23.078;2023-05-07T03:43:10;7.90;;;6.00;;
20014;SDS011;61787;42.022;23.078;2023-05-07T03:44:11;8.83;;;6.63;;
20014;SDS011;61787;42.022;23.078;2023-05-07T03:45:13;10.93;;;7.07;;
20014;SDS011;61787;42.022;23.078;2023-05-07T03:46:15;7.53;;;6.83;;
20014;SDS011;61787;42.022;23.078;2023-05-07T03:47:16;8.00;;;7.20;;
20014;SDS011;61787;42.022;23.078;2023-05-07T03:48:18;8.20;;;6.97;;
20014;SDS011;61787;42.022;23.078;2023-05-07T03:49:20;8.93;;;6.67;;
20014;SDS011;61787;42.022;23.078;2023-05-07T03:50:21;8.33;;;6.93;;
20014;SDS011;61787;42.022;23.078;2023-05-07T03:51:23;7.67;;;6.87;;
20014;SDS011;61787;42.022;23.078;2023-05-07T03:52:24;8.20;;;7.20;;
20014;SDS011;61787;42.022;23.078;2023-05-07T03:53:27;7.67;;;6.60;;
20014;SDS011;61787;42.022;23.078;2023-05-07T03:54:29;9.30;;;6.97;;
20014;SDS011;61787;42.022;23.078;2023-05-07T03:55:31;8.73;;;6.90;;
20014;SDS011;61787;42.022;23.078;2023-05-07T03:56:33;7.43;;;6.63;;
20014;SDS011;61787;42.022;23.078;2023-05-07T03:57:34;9.77;;;6.60;;
20014;SDS011;61787;42.022;23.078;2023-05-07T03:58:36;9.83;;;6.83;;
20014;SDS011;61787;42.022;23.078;2023-05-07T03:59:37;11.37;;;6.67;;
20014;SDS011;61787;42.022;23.078;2023-05-07T04:00:39;7.13;;;5.67;;
20014;SDS011;61787;42.022;23.078;2023-05-07T04:01:41;8.83;;;6.23;;
20014;SDS011;61787;42.022;23.078;2023-05-07T04:02:43;6.27;;;5.63;;
20014;SDS011;61787;42.022;23.078;2023-05-07T04:03:45;8.17;;;6.27;;
20014;SDS011;61787;42.022;23.078;2023-05-07T04:04:48;7.37;;;6.37;;
20014;SDS011;61787;42.022;23.078;2023-05-07T04:05:50;7.37;;;6.00;;
20014;SDS011;61787;42.022;23.078;2023-05-07T04:06:51;7.60;;;6.10;;
20014;SDS011;61787;42.022;23.078;2023-05-07T04:07:54;6.23;;;5.57;;
20014;SDS011;61787;42.022;23.078;2023-05-07T04:08:55;8.10;;;5.67;;
20014;SDS011;61787;42.022;23.078;2023-05-07T04:09:57;6.80;;;5.77;;
20014;SDS011;61787;42.022;23.078;2023-05-07T04:10:59;7.03;;;6.00;;
20014;SDS011;61787;42.022;23.078;2023-05-07T04:12:01;6.77;;;6.00;;
20014;SDS011;61787;42.022;23.078;2023-05-07T04:13:03;8.30;;;5.90;;
20014;SDS011;61787;42.022;23.078;2023-05-07T04:14:05;9.10;;;6.13;;
20014;SDS011;61787;42.022;23.078;2023-05-07T04:15:07;8.57;;;5.77;;
20014;SDS011;61787;42.022;23.078;2023-05-07T04:16:08;7.23;;;5.77;;
20014;SDS011;61787;42.022;23.078;2023-05-07T04:17:10;7.83;;;5.87;;
20014;SDS011;61787;42.022;23.078;2023-05-07T04:18:12;6.23;;;5.63;;
20014;SDS011;61787;42.022;23.078;2023-05-07T04:19:13;7.67;;;6.20;;
20014;SDS011;61787;42.022;23.078;2023-05-07T04:20:15;8.47;;;5.70;;
20014;SDS011;61787;42.022;23.078;2023-05-07T04:21:19;8.77;;;5.67;;
20014;SDS011;61787;42.022;23.078;2023-05-07T04:22:21;8.33;;;5.90;;
20014;SDS011;61787;42.022;23.078;2023-05-07T04:23:23;8.60;;;5.67;;
20014;SDS011;61787;42.022;23.078;2023-05-07T04:24:24;7.63;;;5.53;;
20014;SDS011;61787;42.022;23.078;2023-05-07T04:25:26;6.80;;;6.10;;
20014;SDS011;61787;42.022;23.078;2023-05-07T04:26:28;8.17;;;6.10;;
20014;SDS011;61787;42.022;23.078;2023-05-07T04:27:29;7.13;;;5.23;;
20014;SDS011;61787;42.022;23.078;2023-05-07T04:28:31;6.27;;;5.63;;
20014;SDS011;61787;42.022;23.078;2023-05-07T04:29:32;8.87;;;5.40;;
20014;SDS011;61787;42.022;23.078;2023-05-07T04:30:34;8.30;;;5.90;;
20014;SDS011;61787;42.022;23.078;2023-05-07T04:31:35;8.30;;;6.50;;
20014;SDS011;61787;42.022;23.078;2023-05-07T04:32:37;6.87;;;5.97;;
20014;SDS011;61787;42.022;23.078;2023-05-07T04:33:40;7.63;;;6.10;;
20014;SDS011;61787;42.022;23.078;2023-05-07T04:34:41;8.57;;;6.00;;
20014;SDS011;61787;42.022;23.078;2023-05-07T04:35:43;7.80;;;5.73;;
20014;SDS011;61787;42.022;23.078;2023-05-07T04:36:45;7.27;;;6.07;;
20014;SDS011;61787;42.022;23.078;2023-05-07T04:37:47;6.70;;;5.73;;
20014;SDS011;61787;42.022;23.078;2023-05-07T04:38:49;8.10;;;5.77;;
20014;SDS011;61787;42.022;23.078;2023-05-07T04:39:50;6.20;;;5.33;;
20014;SDS011;61787;42.022;23.078;2023-05-07T04:40:52;7.07;;;5.47;;
20014;SDS011;61787;42.022;23.078;2023-05-07T04:41:54;7.03;;;5.47;;
20014;SDS011;61787;42.022;23.078;2023-05-07T04:42:55;7.83;;;6.20;;
20014;SDS011;61787;42.022;23.078;2023-05-07T04:43:57;6.53;;;5.90;;
20014;SDS011;61787;42.022;23.078;2023-05-07T04:45:00;9.87;;;6.33;;
20014;SDS011;61787;42.022;23.078;2023-05-07T04:46:02;8.63;;;5.70;;
20014;SDS011;61787;42.022;23.078;2023-05-07T04:47:03;7.60;;;5.50;;
20014;SDS011;61787;42.022;23.078;2023-05-07T04:48:05;7.30;;;5.57;;
20014;SDS011;61787;42.022;23.078;2023-05-07T04:49:07;7.50;;;5.90;;
20014;SDS011;61787;42.022;23.078;2023-05-07T04:50:08;9.03;;;6.77;;
20014;SDS011;61787;42.022;23.078;2023-05-07T04:51:11;10.37;;;6.60;;
20014;SDS011;61787;42.022;23.078;2023-05-07T04:52:12;8.50;;;6.23;;
20014;SDS011;61787;42.022;23.078;2023-05-07T04:53:14;11.43;;;6.70;;
20014;SDS011;61787;42.022;23.078;2023-05-07T04:54:15;8.80;;;6.23;;
20014;SDS011;61787;42.022;23.078;2023-05-07T04:55:17;7.60;;;6.80;;
20014;SDS011;61787;42.022;23.078;2023-05-07T04:56:18;8.70;;;6.90;;
20014;SDS011;61787;42.022;23.078;2023-05-07T04:57:21;9.43;;;6.53;;
20014;SDS011;61787;42.022;23.078;2023-05-07T04:58:23;7.20;;;5.70;;
20014;SDS011;61787;42.022;23.078;2023-05-07T04:59:25;8.43;;;6.37;;
20014;SDS011;61787;42.022;23.078;2023-05-07T05:00:26;6.73;;;6.03;;
20014;SDS011;61787;42.022;23.078;2023-05-07T05:01:28;9.37;;;6.60;;
20014;SDS011;61787;42.022;23.078;2023-05-07T05:02:30;6.10;;;5.50;;
20014;SDS011;61787;42.022;23.078;2023-05-07T05:03:31;6.80;;;5.67;;
20014;SDS011;61787;42.022;23.078;2023-05-07T05:04:33;6.60;;;6.00;;
20014;SDS011;61787;42.022;23.078;2023-05-07T05:05:35;7.63;;;5.60;;
20014;SDS011;61787;42.022;23.078;2023-05-07T05:06:36;6.33;;;5.73;;
20014;SDS011;61787;42.022;23.078;2023-05-07T05:07:38;6.70;;;5.40;;
20014;SDS011;61787;42.022;23.078;2023-05-07T05:08:39;6.83;;;5.40;;
20014;SDS011;61787;42.022;23.078;2023-05-07T05:09:41;6.15;;;5.05;;
20014;SDS011;61787;42.022;23.078;2023-05-07T05:10:43;6.15;;;5.55;;
20014;SDS011;61787;42.022;23.078;2023-05-07T05:11:44;6.47;;;5.07;;
20014;SDS011;61787;42.022;23.078;2023-05-07T05:12:46;5.63;;;5.10;;
20014;SDS011;61787;42.022;23.078;2023-05-07T05:13:48;6.07;;;4.78;;
20014;SDS011;61787;42.022;23.078;2023-05-07T05:14:50;6.50;;;4.95;;
20014;SDS011;61787;42.022;23.078;2023-05-07T05:15:52;5.60;;;4.95;;
20014;SDS011;61787;42.022;23.078;2023-05-07T05:16:53;6.75;;;5.10;;
20014;SDS011;61787;42.022;23.078;2023-05-07T05:17:55;6.85;;;5.32;;
20014;SDS011;61787;42.022;23.078;2023-05-07T05:18:57;6.10;;;5.30;;
20014;SDS011;61787;42.022;23.078;2023-05-07T05:19:58;7.70;;;5.20;;
20014;SDS011;61787;42.022;23.078;2023-05-07T05:21:00;6.72;;;5.03;;
20014;SDS011;61787;42.022;23.078;2023-05-07T05:22:01;7.82;;;5.20;;
20014;SDS011;61787;42.022;23.078;2023-05-07T05:23:05;6.95;;;5.25;;
20014;SDS011;61787;42.022;23.078;2023-05-07T05:24:07;6.45;;;5.10;;
20014;SDS011;61787;42.022;23.078;2023-05-07T05:25:08;6.20;;;4.97;;
20014;SDS011;61787;42.022;23.078;2023-05-07T05:26:10;10.10;;;5.03;;
20014;SDS011;61787;42.022;23.078;2023-05-07T05:27:12;6.40;;;4.85;;
20014;SDS011;61787;42.022;23.078;2023-05-07T05:28:14;6.43;;;5.22;;
20014;SDS011;61787;42.022;23.078;2023-05-07T05:29:15;5.90;;;4.97;;
20014;SDS011;61787;42.022;23.078;2023-05-07T05:30:17;8.43;;;5.10;;
20014;SDS011;61787;42.022;23.078;2023-05-07T05:31:20;6.53;;;5.30;;
20014;SDS011;61787;42.022;23.078;2023-05-07T05:32:22;6.32;;;5.25;;
20014;SDS011;61787;42.022;23.078;2023-05-07T05:33:24;6.43;;;5.03;;
20014;SDS011;61787;42.022;23.078;2023-05-07T05:34:25;8.45;;;4.93;;
20014;SDS011;61787;42.022;23.078;2023-05-07T05:35:27;5.45;;;4.85;;
20014;SDS011;61787;42.022;23.078;2023-05-07T05:36:28;6.70;;;4.55;;
20014;SDS011;61787;42.022;23.078;2023-05-07T05:37:31;7.20;;;5.25;;
20014;SDS011;61787;42.022;23.078;2023-05-07T05:38:33;7.55;;;5.13;;
20014;SDS011;61787;42.022;23.078;2023-05-07T05:39:35;8.70;;;4.85;;
20014;SDS011;61787;42.022;23.078;2023-05-07T05:40:36;7.25;;;5.25;;
20014;SDS011;61787;42.022;23.078;2023-05-07T05:41:38;7.18;;;4.88;;
20014;SDS011;61787;42.022;23.078;2023-05-07T05:42:40;6.70;;;5.25;;
20014;SDS011;61787;42.022;23.078;2023-05-07T05:43:41;8.02;;;4.90;;
20014;SDS011;61787;42.022;23.078;2023-05-07T05:44:43;7.88;;;5.07;;
20014;SDS011;61787;42.022;23.078;2023-05-07T05:45:44;6.95;;;5.00;;
20014;SDS011;61787;42.022;23.078;2023-05-07T05:46:46;8.70;;;5.07;;
20014;SDS011;61787;42.022;23.078;2023-05-07T05:47:48;6.95;;;5.40;;
20014;SDS011;61787;42.022;23.078;2023-05-07T05:48:50;7.43;;;4.82;;
20014;SDS011;61787;42.022;23.078;2023-05-07T05:49:51;6.63;;;4.70;;
20014;SDS011;61787;42.022;23.078;2023-05-07T05:50:53;6.13;;;4.57;;
20014;SDS011;61787;42.022;23.078;2023-05-07T05:51:54;11.30;;;5.05;;
20014;SDS011;61787;42.022;23.078;2023-05-07T05:52:57;8.43;;;5.18;;
20014;SDS011;61787;42.022;23.078;2023-05-07T05:54:00;6.82;;;5.03;;
20014;SDS011;61787;42.022;23.078;2023-05-07T05:55:02;5.85;;;4.68;;
20014;SDS011;61787;42.022;23.078;2023-05-07T05:56:04;7.25;;;4.75;;
20014;SDS011;61787;42.022;23.078;2023-05-07T05:57:06;6.82;;;4.70;;
20014;SDS011;61787;42.022;23.078;2023-05-07T05:58:08;7.38;;;4.90;;
20014;SDS011;61787;42.022;23.078;2023-05-07T05:59:10;5.97;;;4.50;;
20014;SDS011;61787;42.022;23.078;2023-05-07T06:00:12;8.82;;;5.18;;
20014;SDS011;61787;42.022;23.078;2023-05-07T06:02:17;7.05;;;4.90;;
20014;SDS011;61787;42.022;23.078;2023-05-07T06:03:19;6.32;;;4.68;;
20014;SDS011;61787;42.022;23.078;2023-05-07T06:04:20;8.32;;;5.13;;
20014;SDS011;61787;42.022;23.078;2023-05-07T06:05:22;9.68;;;5.03;;
20014;SDS011;61787;42.022;23.078;2023-05-07T06:06:24;5.50;;;4.70;;
20014;SDS011;61787;42.022;23.078;2023-05-07T06:07:25;5.22;;;4.72;;
20014;SDS011;61787;42.022;23.078;2023-05-07T06:08:30;6.15;;;5.10;;
20014;SDS011;61787;42.022;23.078;2023-05-07T06:09:31;6.68;;;4.97;;